Time;durP1;ratioP1;P1;durP2;ratioP2;P2;SDS_P1;SDS_P2;PMS_P1;PMS_P2;Temp;Humidity;BMP_temperature;BMP_pressure;BME280_temperature;BME280_humidity;BME280_pressure;Samples;Min_cycle;Max_cycle;Signal;HPM_P1;HPM_P2
2021/05/21 00:00:39;;;;;;;5.28;2.30;;;15.40;63.80;;;;;;4119962;28;20044;-65
2021/05/21 00:02:41;;;;;;;6.65;2.63;;;15.40;64.10;;;;;;4119136;28;20336;-66
2021/05/21 00:04:43;;;;;;;5.68;2.70;;;15.50;64.20;;;;;;4119845;28;20118;-66
2021/05/21 00:06:45;;;;;;;5.75;2.33;;;15.50;64.20;;;;;;4122034;28;20037;-66
2021/05/21 00:08:47;;;;;;;3.08;2.08;;;15.50;64.20;;;;;;4117680;28;20038;-64
2021/05/21 00:10:49;;;;;;;4.55;2.47;;;15.60;64.20;;;;;;4121220;28;20148;-63
2021/05/21 00:12:52;;;;;;;4.90;2.47;;;15.60;64.10;;;;;;4119701;28;20039;-62
2021/05/21 00:14:54;;;;;;;3.40;2.38;;;15.60;64.00;;;;;;4119172;28;20798;-64
2021/05/21 00:16:56;;;;;;;3.58;2.30;;;15.60;64.00;;;;;;4118116;28;20144;-62
2021/05/21 00:18:59;;;;;;;4.68;2.22;;;15.60;64.00;;;;;;4123296;28;20587;-67
2021/05/21 00:21:01;;;;;;;5.03;2.47;;;15.70;64.00;;;;;;4120434;28;20052;-65
2021/05/21 00:23:03;;;;;;;2.85;2.25;;;15.70;64.00;;;;;;4119217;28;20109;-65
2021/05/21 00:25:06;;;;;;;4.28;2.30;;;15.70;64.00;;;;;;4121187;28;20147;-67
2021/05/21 00:27:08;;;;;;;5.03;2.30;;;15.70;64.00;;;;;;4119146;28;20454;-69
2021/05/21 00:29:10;;;;;;;5.00;2.22;;;15.80;64.10;;;;;;4119813;28;20395;-68
2021/05/21 00:31:12;;;;;;;2.97;2.20;;;15.80;64.00;;;;;;4120355;28;20195;-70
2021/05/21 00:33:14;;;;;;;8.18;2.35;;;15.80;63.90;;;;;;4117208;28;20033;-64
2021/05/21 00:35:17;;;;;;;19.30;2.55;;;15.80;64.00;;;;;;4119895;28;20669;-64
2021/05/21 00:37:19;;;;;;;7.32;2.47;;;16.00;64.10;;;;;;4120402;28;20131;-62
2021/05/21 00:39:21;;;;;;;6.60;2.30;;;16.40;63.40;;;;;;4119923;28;20489;-64
2021/05/21 00:41:25;;;;;;;5.65;2.45;;;17.10;62.00;;;;;;4117620;28;20054;-64
2021/05/21 00:43:27;;;;;;;3.78;2.15;;;17.70;60.80;;;;;;4117769;28;20289;-64
2021/05/21 00:45:29;;;;;;;5.85;2.17;;;18.30;59.50;;;;;;4121714;28;20100;-65
2021/05/21 00:47:32;;;;;;;4.00;1.73;;;18.70;58.40;;;;;;4120001;28;20049;-62
2021/05/21 00:49:34;;;;;;;2.60;1.75;;;19.20;57.50;;;;;;4120326;28;20041;-61
2021/05/21 00:51:36;;;;;;;4.53;2.00;;;19.60;56.50;;;;;;4117949;28;20049;-61
2021/05/21 00:53:39;;;;;;;2.95;2.17;;;20.00;55.90;;;;;;4115624;28;20050;-63
2021/05/21 00:55:41;;;;;;;;;;;20.40;55.10;;;;;;4118568;28;20132;-63
2021/05/21 00:57:43;;;;;;;4.22;1.75;;;20.70;54.80;;;;;;4120838;28;19921;-66
2021/05/21 00:59:46;;;;;;;2.43;1.60;;;20.80;54.00;;;;;;4117965;28;20359;-60
2021/05/21 01:01:51;;;;;;;3.17;2.00;;;20.70;53.90;;;;;;4111654;28;20326;-62
2021/05/21 01:03:53;;;;;;;3.05;1.65;;;20.40;54.10;;;;;;4118392;28;20049;-64
2021/05/21 01:05:56;;;;;;;3.33;1.50;;;20.20;55.00;;;;;;4115301;28;20034;-64
2021/05/21 01:07:58;;;;;;;;;;;20.10;55.30;;;;;;4116415;28;20046;-68
2021/05/21 01:10:00;;;;;;;4.38;1.83;;;20.10;55.10;;;;;;4115973;28;19917;-63
2021/05/21 01:12:02;;;;;;;2.55;1.75;;;20.00;55.20;;;;;;4114151;28;20053;-63
2021/05/21 01:14:04;;;;;;;2.85;1.70;;;19.90;55.20;;;;;;4115057;28;20037;-63
2021/05/21 01:16:07;;;;;;;2.83;1.63;;;19.80;55.60;;;;;;4115472;28;20030;-62
2021/05/21 01:18:11;;;;;;;2.50;1.67;;;19.70;55.60;;;;;;4110389;28;20057;-65
2021/05/21 01:20:13;;;;;;;2.58;1.75;;;19.60;55.80;;;;;;4114153;28;20247;-63
2021/05/21 01:22:17;;;;;;;2.88;1.65;;;19.50;56.00;;;;;;4113671;28;20314;-64
2021/05/21 01:24:21;;;;;;;3.97;1.77;;;19.40;56.10;;;;;;4115715;28;20196;-63
2021/05/21 01:26:25;;;;;;;4.97;1.92;;;19.40;56.30;;;;;;4111654;28;20042;-65
2021/05/21 01:28:27;;;;;;;3.45;1.73;;;19.30;56.40;;;;;;4114645;28;20041;-67
2021/05/21 01:30:29;;;;;;;3.45;1.83;;;19.20;56.50;;;;;;4115121;28;20290;-65
2021/05/21 01:32:31;;;;;;;2.60;2.15;;;19.20;56.70;;;;;;4116334;28;20034;-64
2021/05/21 01:34:35;;;;;;;4.18;1.90;;;19.20;56.90;;;;;;4115188;28;20257;-65
2021/05/21 01:36:37;;;;;;;4.25;1.90;;;19.10;56.90;;;;;;4114550;28;20048;-66
2021/05/21 01:38:53;;;;;;;3.65;2.00;;;19.00;57.10;;;;;;4115904;28;20053;-64
2021/05/21 01:40:59;;;;;;;3.42;2.00;;;19.00;57.20;;;;;;4115666;28;20037;-63
2021/05/21 01:43:02;;;;;;;5.40;1.90;;;19.00;57.40;;;;;;4121186;28;20511;-63
2021/05/21 01:45:04;;;;;;;;;;;19.00;57.50;;;;;;4116438;28;20045;-63
2021/05/21 01:47:07;;;;;;;2.88;1.92;;;18.90;57.60;;;;;;4116219;28;19971;-66
2021/05/21 01:49:09;;;;;;;3.05;1.80;;;18.90;57.70;;;;;;4116550;28;20026;-67
2021/05/21 01:51:12;;;;;;;3.92;1.95;;;18.90;57.90;;;;;;4116313;28;20112;-67
2021/05/21 01:53:14;;;;;;;4.35;1.90;;;18.80;57.80;;;;;;4116691;28;20045;-66
2021/05/21 01:55:16;;;;;;;6.68;1.80;;;18.80;57.80;;;;;;4118075;28;20512;-67
2021/05/21 01:57:18;;;;;;;3.80;1.67;;;18.80;58.20;;;;;;4118810;28;21605;-66
2021/05/21 01:59:21;;;;;;;4.35;2.05;;;18.80;58.10;;;;;;4116445;28;20070;-65
2021/05/21 02:01:23;;;;;;;6.90;2.13;;;18.80;58.10;;;;;;4115305;28;20034;-64
2021/05/21 02:03:28;;;;;;;3.65;1.95;;;18.80;57.90;;;;;;4119203;28;20054;-65
2021/05/21 02:05:30;;;;;;;2.85;1.80;;;18.80;58.20;;;;;;4112992;28;20060;-66
2021/05/21 02:07:33;;;;;;;6.13;2.15;;;18.70;58.20;;;;;;4117859;28;20527;-65
2021/05/21 02:10:00;;;;;;;3.38;1.88;;;18.70;58.20;;;;;;4113166;28;20522;-65
2021/05/21 02:12:05;;;;;;;1.88;1.58;;;18.70;58.40;;;;;;4115385;28;20041;-66
2021/05/21 02:14:08;;;;;;;2.90;2.10;;;18.70;58.40;;;;;;4105157;28;20485;-68
2021/05/21 02:16:10;;;;;;;2.53;1.73;;;18.70;58.60;;;;;;4118515;28;20028;-67
2021/05/21 02:18:13;;;;;;;2.63;1.50;;;18.70;58.70;;;;;;4113857;28;20107;-64
2021/05/21 02:20:15;;;;;;;2.70;2.00;;;18.70;58.70;;;;;;4117068;28;20116;-66
2021/05/21 02:22:20;;;;;;;2.50;1.90;;;18.70;58.70;;;;;;4113411;28;20053;-66
2021/05/21 02:24:22;;;;;;;3.10;2.05;;;18.70;59.00;;;;;;4114486;28;20025;-66
2021/05/21 02:26:24;;;;;;;3.42;1.88;;;18.60;58.80;;;;;;4117471;28;20377;-67
2021/05/21 02:28:26;;;;;;;2.83;1.85;;;18.60;59.10;;;;;;4120083;28;20037;-66
2021/05/21 02:30:28;;;;;;;3.70;1.80;;;18.60;59.10;;;;;;4117535;28;20189;-63
2021/05/21 02:32:31;;;;;;;4.32;2.42;;;18.60;59.10;;;;;;4119814;28;20761;-62
2021/05/21 02:34:33;;;;;;;3.70;2.00;;;18.60;58.60;;;;;;4117527;28;20034;-66
2021/05/21 02:36:35;;;;;;;8.05;2.63;;;18.60;58.60;;;;;;4116488;28;20515;-67
2021/05/21 02:38:37;;;;;;;5.53;2.67;;;18.60;59.00;;;;;;4116484;28;20368;-69
2021/05/21 02:40:39;;;;;;;4.72;2.05;;;18.50;58.90;;;;;;4116759;28;20134;-69
2021/05/21 02:42:42;;;;;;;4.82;2.45;;;18.50;59.10;;;;;;4127572;28;20041;-72
2021/05/21 02:44:44;;;;;;;12.82;3.15;;;18.40;58.80;;;;;;4117253;28;20075;-66
2021/05/21 02:46:46;;;;;;;7.20;2.50;;;18.40;59.20;;;;;;4121821;28;20030;-66
2021/05/21 02:48:48;;;;;;;8.15;2.53;;;18.40;59.20;;;;;;4119473;28;20672;-67
2021/05/21 02:50:50;;;;;;;3.50;2.30;;;18.40;59.40;;;;;;4114702;28;22222;-66
2021/05/21 02:52:52;;;;;;;7.22;1.73;;;18.40;59.20;;;;;;4117397;28;20033;-66
2021/05/21 02:54:54;;;;;;;3.78;1.85;;;18.40;59.10;;;;;;4113849;28;20869;-65
2021/05/21 02:56:57;;;;;;;3.50;1.75;;;18.30;59.00;;;;;;4118984;28;20339;-65
2021/05/21 02:58:59;;;;;;;4.97;2.25;;;18.30;59.00;;;;;;4115022;28;20477;-65
2021/05/21 03:01:01;;;;;;;3.17;1.98;;;18.30;59.00;;;;;;4116435;28;20033;-66
2021/05/21 03:03:03;;;;;;;3.58;1.80;;;18.20;58.90;;;;;;4116454;28;20370;-65
2021/05/21 03:05:06;;;;;;;3.45;1.98;;;18.30;59.00;;;;;;4117764;28;20061;-65
2021/05/21 03:07:08;;;;;;;4.53;2.22;;;18.30;59.00;;;;;;4119018;28;20735;-64
2021/05/21 03:09:10;;;;;;;3.50;1.63;;;18.20;58.90;;;;;;4117839;28;20037;-65
2021/05/21 03:11:12;;;;;;;2.92;1.95;;;18.20;59.00;;;;;;4120632;28;20045;-65
2021/05/21 03:13:14;;;;;;;5.63;2.35;;;18.20;58.90;;;;;;4119361;28;20033;-65
2021/05/21 03:15:17;;;;;;;3.38;2.10;;;18.20;59.10;;;;;;4120555;28;20495;-64
2021/05/21 03:17:19;;;;;;;4.53;2.15;;;18.20;59.00;;;;;;4120817;28;21015;-65
2021/05/21 03:19:21;;;;;;;4.50;2.08;;;18.20;59.00;;;;;;4121113;28;20068;-65
2021/05/21 03:21:23;;;;;;;3.67;1.92;;;18.10;59.00;;;;;;4121801;28;20035;-63
2021/05/21 03:23:25;;;;;;;3.70;2.13;;;18.10;59.00;;;;;;4119745;28;20049;-64
2021/05/21 03:25:27;;;;;;;3.28;1.90;;;18.10;59.00;;;;;;4120800;28;21066;-64
2021/05/21 03:27:31;;;;;;;3.50;2.20;;;18.10;59.60;;;;;;4120496;28;20155;-64
2021/05/21 03:29:33;;;;;;;4.75;2.10;;;18.10;59.10;;;;;;4125726;28;20046;-65
2021/05/21 03:31:35;;;;;;;3.90;1.95;;;18.10;59.10;;;;;;4121095;28;20034;-65
2021/05/21 03:33:37;;;;;;;3.63;2.10;;;18.10;59.10;;;;;;4117613;28;20625;-65
2021/05/21 03:35:40;;;;;;;5.57;2.00;;;18.10;59.10;;;;;;4118468;28;20799;-65
2021/05/21 03:37:42;;;;;;;5.20;2.20;;;18.00;59.00;;;;;;4120113;28;20158;-65
2021/05/21 03:39:44;;;;;;;3.05;1.83;;;18.00;59.10;;;;;;4119857;28;20017;-64
2021/05/21 03:41:47;;;;;;;3.78;1.90;;;18.00;59.20;;;;;;4117333;28;20172;-64
2021/05/21 03:43:50;;;;;;;3.75;2.00;;;18.00;59.20;;;;;;4120293;28;20160;-64
2021/05/21 03:45:52;;;;;;;4.45;2.25;;;18.00;59.20;;;;;;4122423;28;20105;-64
2021/05/21 03:47:54;;;;;;;6.15;2.50;;;18.00;59.30;;;;;;4119179;28;21168;-64
2021/05/21 03:49:56;;;;;;;5.78;2.25;;;18.00;59.30;;;;;;4119433;28;20042;-64
2021/05/21 03:51:59;;;;;;;4.63;2.28;;;18.00;59.20;;;;;;4123441;28;20018;-65
2021/05/21 03:54:02;;;;;;;3.60;2.05;;;18.00;59.20;;;;;;4125683;28;20469;-65
2021/05/21 03:56:05;;;;;;;5.03;2.20;;;18.00;59.40;;;;;;4124868;28;20113;-64
2021/05/21 03:58:08;;;;;;;2.97;1.90;;;18.00;59.20;;;;;;4126902;28;20378;-64
2021/05/21 04:00:12;;;;;;;;;;;18.00;59.20;;;;;;4120769;28;20087;-63
2021/05/21 04:02:14;;;;;;;6.57;2.33;;;18.00;59.60;;;;;;4125142;28;19929;-64
2021/05/21 04:04:16;;;;;;;3.95;2.50;;;18.00;59.90;;;;;;4119322;28;20103;-63
2021/05/21 04:06:18;;;;;;;5.22;2.30;;;18.00;60.20;;;;;;4119762;28;20041;-62
2021/05/21 04:08:21;;;;;;;4.10;2.50;;;18.00;60.40;;;;;;4116193;28;20041;-61
2021/05/21 04:10:23;;;;;;;4.77;2.20;;;18.10;60.40;;;;;;4120920;28;20038;-62
2021/05/21 04:12:26;;;;;;;3.47;2.33;;;18.10;60.70;;;;;;4113599;28;20398;-63
2021/05/21 04:14:28;;;;;;;5.10;2.08;;;18.10;60.80;;;;;;4118273;28;20396;-63
2021/05/21 04:16:30;;;;;;;5.60;2.80;;;18.10;60.60;;;;;;4119891;28;20512;-65
2021/05/21 04:18:39;;;;;;;5.85;2.85;;;18.10;60.50;;;;;;4115415;28;20464;-64
2021/05/21 04:20:41;;;;;;;9.43;3.00;;;18.10;60.50;;;;;;4112259;28;20041;-62
2021/05/21 04:22:43;;;;;;;7.30;3.17;;;18.20;60.50;;;;;;4114525;28;20037;-63
2021/05/21 04:24:45;;;;;;;5.50;2.53;;;18.20;61.40;;;;;;4113759;28;20022;-68
2021/05/21 04:26:47;;;;;;;7.28;2.85;;;18.20;61.60;;;;;;4114340;28;20101;-65
2021/05/21 04:28:49;;;;;;;5.90;2.47;;;18.20;61.80;;;;;;4110254;28;20037;-65
2021/05/21 04:30:54;;;;;;;5.25;2.63;;;18.20;61.90;;;;;;4112896;28;20034;-64
2021/05/21 04:32:56;;;;;;;7.47;2.90;;;18.20;62.00;;;;;;4112963;28;20167;-64
2021/05/21 04:34:59;;;;;;;6.75;2.83;;;18.30;62.60;;;;;;4104005;28;20045;-63
2021/05/21 04:37:01;;;;;;;4.82;2.78;;;18.30;62.00;;;;;;4121188;28;20458;-66
2021/05/21 04:39:05;;;;;;;5.53;2.42;;;18.20;61.90;;;;;;4113473;28;20088;-66
2021/05/21 04:41:07;;;;;;;7.32;2.22;;;18.30;62.00;;;;;;4112890;28;20061;-67
2021/05/21 04:43:09;;;;;;;7.18;2.90;;;18.30;62.00;;;;;;4113076;28;20029;-69
2021/05/21 04:45:12;;;;;;;5.63;2.50;;;18.30;62.00;;;;;;4110335;28;20046;-63
2021/05/21 04:47:14;;;;;;;4.32;2.50;;;18.30;62.00;;;;;;4126693;28;20357;-66
2021/05/21 04:49:32;;;;;;;4.20;2.47;;;18.30;61.90;;;;;;4115064;28;20152;-63
2021/05/21 04:51:34;;;;;;;5.47;2.88;;;18.30;61.90;;;;;;4114848;28;20554;-63
2021/05/21 04:53:37;;;;;;;4.82;2.45;;;18.40;62.10;;;;;;4108949;28;20542;-67
2021/05/21 04:55:43;;;;;;;4.32;2.58;;;18.30;62.10;;;;;;4111394;28;20029;-67
2021/05/21 04:57:49;;;;;;;6.78;3.03;;;18.40;62.10;;;;;;4112989;28;20531;-65
2021/05/21 04:59:51;;;;;;;8.40;3.17;;;18.30;62.20;;;;;;4113338;28;20049;-65
2021/05/21 05:01:54;;;;;;;5.70;2.55;;;18.40;62.40;;;;;;4114104;28;21084;-67
2021/05/21 05:03:56;;;;;;;4.70;2.88;;;18.40;62.10;;;;;;4113351;28;20116;-63
2021/05/21 05:05:58;;;;;;;9.20;2.88;;;18.40;62.20;;;;;;4114250;28;20538;-69
2021/05/21 05:08:01;;;;;;;6.70;3.10;;;18.40;62.20;;;;;;4109023;28;20080;-63
2021/05/21 05:10:03;;;;;;;6.55;2.78;;;18.40;62.10;;;;;;4111989;28;20025;-67
2021/05/21 05:12:06;;;;;;;6.47;3.67;;;18.40;62.10;;;;;;4110010;28;20367;-67
2021/05/21 05:14:13;;;;;;;6.90;3.10;;;18.40;62.10;;;;;;4110130;28;20041;-66
2021/05/21 05:16:15;;;;;;;8.25;4.10;;;18.40;61.80;;;;;;4112680;28;20059;-65
2021/05/21 05:18:17;;;;;;;11.63;4.15;;;18.40;62.00;;;;;;4113785;28;20053;-66
2021/05/21 05:20:22;;;;;;;7.53;4.32;;;18.40;62.20;;;;;;4117113;28;20455;-64
2021/05/21 05:22:24;;;;;;;7.90;4.05;;;18.30;62.40;;;;;;4116123;28;20042;-67
2021/05/21 05:24:32;;;;;;;7.85;4.10;;;18.30;62.00;;;;;;4115506;28;20284;-66
2021/05/21 05:26:34;;;;;;;6.35;3.75;;;18.30;62.20;;;;;;4119218;28;20179;-65
2021/05/21 05:28:36;;;;;;;6.80;4.13;;;18.30;62.30;;;;;;4114539;28;20731;-67
2021/05/21 05:30:39;;;;;;;9.70;3.67;;;18.30;62.30;;;;;;4116968;28;20059;-68
2021/05/21 05:32:41;;;;;;;8.40;3.75;;;18.30;62.20;;;;;;4121324;28;20246;-65
2021/05/21 05:34:44;;;;;;;7.28;3.50;;;18.30;62.40;;;;;;4121725;28;20032;-68
2021/05/21 05:36:46;;;;;;;8.75;4.20;;;18.30;62.70;;;;;;4122720;28;20026;-69
2021/05/21 05:38:48;;;;;;;7.13;3.38;;;18.30;62.80;;;;;;4119508;28;20220;-69
2021/05/21 05:40:50;;;;;;;6.35;3.22;;;18.30;62.90;;;;;;4121749;28;20529;-68
2021/05/21 05:42:53;;;;;;;5.65;2.97;;;18.30;62.90;;;;;;4121361;28;20530;-68
2021/05/21 05:44:55;;;;;;;5.03;2.90;;;18.30;62.90;;;;;;4117620;28;20526;-66
2021/05/21 05:46:57;;;;;;;6.63;2.90;;;18.30;63.00;;;;;;4115104;28;20034;-66
2021/05/21 05:48:59;;;;;;;4.70;2.60;;;18.30;62.90;;;;;;4118597;28;20030;-65
2021/05/21 05:51:01;;;;;;;6.28;2.67;;;18.30;63.00;;;;;;4113668;28;20463;-67
2021/05/21 05:53:03;;;;;;;5.70;2.75;;;18.40;63.10;;;;;;4110799;28;20100;-66
2021/05/21 05:55:06;;;;;;;5.70;2.58;;;18.30;63.10;;;;;;4113381;28;20164;-64
2021/05/21 05:57:08;;;;;;;4.80;2.78;;;18.40;63.10;;;;;;4113967;28;20034;-67
2021/05/21 05:59:10;;;;;;;5.00;2.60;;;18.40;63.20;;;;;;4111910;28;20045;-67
2021/05/21 06:01:12;;;;;;;4.03;2.45;;;18.40;63.10;;;;;;4114053;28;20088;-65
2021/05/21 06:03:14;;;;;;;4.78;2.60;;;18.40;63.20;;;;;;4109087;28;20041;-65
2021/05/21 06:05:16;;;;;;;3.70;2.55;;;18.40;63.20;;;;;;4111373;28;20443;-66
2021/05/21 06:07:18;;;;;;;3.22;1.95;;;18.40;63.20;;;;;;4113407;28;20086;-64
2021/05/21 06:09:20;;;;;;;3.70;2.17;;;18.40;63.20;;;;;;4112276;28;20045;-64
2021/05/21 06:11:23;;;;;;;5.28;2.50;;;18.40;63.10;;;;;;4112021;28;20988;-65
2021/05/21 06:13:26;;;;;;;6.70;2.60;;;18.40;63.20;;;;;;4113022;28;20034;-65
2021/05/21 06:15:29;;;;;;;6.45;2.40;;;18.40;63.30;;;;;;4108334;28;20373;-67
2021/05/21 06:17:31;;;;;;;3.53;2.33;;;18.50;63.40;;;;;;4110862;28;21037;-68
2021/05/21 06:19:33;;;;;;;5.65;2.60;;;18.50;63.40;;;;;;4113202;28;20125;-68
2021/05/21 06:21:35;;;;;;;5.03;2.75;;;18.50;64.10;;;;;;4112654;28;20523;-67
2021/05/21 06:23:38;;;;;;;5.05;3.00;;;18.50;63.50;;;;;;4110880;28;20665;-65
2021/05/21 06:27:50;;;;;;;5.43;2.60;;;18.50;63.60;;;;;;4113861;28;20687;-66
2021/05/21 06:29:52;;;;;;;6.38;2.95;;;18.50;63.50;;;;;;4108760;28;20120;-67
2021/05/21 06:31:54;;;;;;;5.75;2.70;;;18.50;63.50;;;;;;4109463;28;20064;-65
2021/05/21 06:33:56;;;;;;;7.60;3.17;;;18.50;63.50;;;;;;4110213;28;20152;-66
2021/05/21 06:35:58;;;;;;;14.05;3.45;;;18.50;64.20;;;;;;4109958;28;20052;-68
2021/05/21 06:38:00;;;;;;;7.25;3.28;;;18.50;63.50;;;;;;4108135;28;20089;-66
2021/05/21 06:40:03;;;;;;;6.63;3.00;;;18.50;63.40;;;;;;4108868;28;21466;-70
2021/05/21 06:42:05;;;;;;;5.53;2.88;;;18.50;63.40;;;;;;4112562;28;20084;-68
2021/05/21 06:44:07;;;;;;;5.70;2.60;;;18.50;63.40;;;;;;4112087;28;20037;-69
2021/05/21 06:46:10;;;;;;;5.55;2.60;;;18.50;63.30;;;;;;4115597;28;20065;-68
2021/05/21 06:48:12;;;;;;;5.28;2.90;;;18.50;63.30;;;;;;4114959;28;20341;-66
2021/05/21 06:50:14;;;;;;;4.38;2.42;;;18.60;63.40;;;;;;4114782;28;20053;-66
2021/05/21 06:52:16;;;;;;;6.07;2.72;;;18.60;63.40;;;;;;4116269;28;20034;-66
2021/05/21 06:54:19;;;;;;;5.65;2.83;;;18.60;63.50;;;;;;4114526;28;20041;-63
2021/05/21 06:56:21;;;;;;;4.18;2.30;;;18.60;63.50;;;;;;4116424;28;20317;-67
2021/05/21 06:58:26;;;;;;;5.18;2.83;;;18.60;63.40;;;;;;4117633;28;20037;-67
2021/05/21 07:00:28;;;;;;;5.50;2.60;;;18.60;63.50;;;;;;4115167;28;20040;-67
2021/05/21 07:02:30;;;;;;;4.28;2.72;;;18.60;63.60;;;;;;4114674;28;20058;-65
2021/05/21 07:04:32;;;;;;;5.03;2.58;;;18.60;63.60;;;;;;4119157;28;20053;-66
2021/05/21 07:06:34;;;;;;;7.82;2.90;;;18.60;63.50;;;;;;4115814;28;20140;-63
2021/05/21 07:08:36;;;;;;;4.45;2.30;;;18.60;63.30;;;;;;4114432;28;20045;-64
2021/05/21 07:10:39;;;;;;;3.50;2.40;;;18.60;63.10;;;;;;4110405;28;20096;-68
2021/05/21 07:12:41;;;;;;;3.30;2.30;;;18.60;62.80;;;;;;4115367;28;20033;-65
2021/05/21 07:14:44;;;;;;;4.00;2.28;;;18.70;63.20;;;;;;4111367;28;20415;-63
2021/05/21 07:16:46;;;;;;;3.35;2.22;;;19.00;62.90;;;;;;4116345;28;20029;-65
2021/05/21 07:18:48;;;;;;;4.50;2.10;;;19.60;61.80;;;;;;4116766;28;20152;-64
2021/05/21 07:20:50;;;;;;;4.25;2.20;;;20.20;60.60;;;;;;4112661;28;21182;-64
2021/05/21 07:22:52;;;;;;;2.97;1.90;;;20.60;59.80;;;;;;4111844;28;20041;-66
2021/05/21 07:24:55;;;;;;;4.10;2.10;;;20.70;59.00;;;;;;4115209;28;20060;-64
2021/05/21 07:26:57;;;;;;;2.85;1.92;;;20.60;58.90;;;;;;4120705;28;20045;-65
2021/05/21 07:28:59;;;;;;;3.72;2.15;;;20.50;59.70;;;;;;4117774;28;20069;-63
2021/05/21 07:31:02;;;;;;;4.65;2.20;;;20.80;59.00;;;;;;4120210;28;20548;-62
2021/05/21 07:33:04;;;;;;;4.30;2.13;;;21.10;58.40;;;;;;4122688;28;20950;-63
2021/05/21 07:35:07;;;;;;;3.83;2.30;;;21.10;57.40;;;;;;4126384;28;20045;-63
2021/05/21 07:37:09;;;;;;;4.13;2.28;;;21.00;57.50;;;;;;4126345;28;20193;-64
2021/05/21 07:39:14;;;;;;;3.63;2.22;;;20.90;57.80;;;;;;4124679;28;20040;-63
2021/05/21 07:41:18;;;;;;;5.28;2.20;;;20.90;57.90;;;;;;4122448;28;20131;-62
2021/05/21 07:43:20;;;;;;;3.75;1.98;;;21.30;57.40;;;;;;4122748;28;20037;-63
2021/05/21 07:45:23;;;;;;;6.45;2.30;;;21.80;56.40;;;;;;4125435;28;20428;-63
2021/05/21 07:47:25;;;;;;;3.63;2.25;;;22.20;55.00;;;;;;4121045;28;20121;-63
2021/05/21 07:49:27;;;;;;;5.22;2.20;;;22.60;55.30;;;;;;4125079;28;20167;-62
2021/05/21 07:51:32;;;;;;;5.45;2.33;;;22.70;54.00;;;;;;4124422;28;20489;-63
2021/05/21 07:53:34;;;;;;;4.95;2.50;;;22.70;54.00;;;;;;4122677;28;20119;-64
2021/05/21 07:55:36;;;;;;;5.10;2.40;;;22.50;54.30;;;;;;4122826;28;20204;-61
2021/05/21 07:57:39;;;;;;;7.30;3.17;;;22.30;54.40;;;;;;4124153;28;20026;-63
2021/05/21 07:59:41;;;;;;;4.78;3.00;;;;;;;;;;4119993;28;20485;-62
2021/05/21 08:01:43;;;;;;;5.05;2.55;;;22.10;54.70;;;;;;4122626;28;20056;-65
2021/05/21 08:03:46;;;;;;;6.25;2.58;;;21.80;55.80;;;;;;4120351;28;20056;-63
2021/05/21 08:05:48;;;;;;;;;;;21.70;56.20;;;;;;4120377;28;20093;-62
2021/05/21 08:07:50;;;;;;;5.78;2.55;;;21.60;56.40;;;;;;4122035;28;19917;-62
2021/05/21 08:09:54;;;;;;;4.40;2.05;;;21.50;56.60;;;;;;4122562;28;20037;-63
2021/05/21 08:11:57;;;;;;;5.80;2.20;;;21.40;56.70;;;;;;4122938;28;20038;-61
2021/05/21 08:22:50;;;;;;;4.18;2.20;;;21.10;57.90;;;;;;4109051;28;20216;-59
2021/05/21 08:24:52;;;;;;;3.10;1.90;;;21.00;57.80;;;;;;4126715;28;20044;-61
2021/05/21 08:26:54;;;;;;;3.72;2.08;;;21.00;58.40;;;;;;4123554;28;20137;-61
2021/05/21 08:28:58;;;;;;;3.55;1.85;;;20.90;58.40;;;;;;4122358;28;20044;-60
2021/05/21 08:31:00;;;;;;;4.25;2.20;;;20.90;58.70;;;;;;4122251;28;20045;-61
2021/05/21 08:33:03;;;;;;;3.83;2.40;;;20.90;58.60;;;;;;4121810;28;20058;-63
2021/05/21 08:35:06;;;;;;;5.32;2.50;;;20.80;58.80;;;;;;4121381;28;20060;-63
2021/05/21 08:37:08;;;;;;;3.87;2.07;;;20.80;58.90;;;;;;4122708;28;20037;-62
2021/05/21 08:39:12;;;;;;;4.00;2.30;;;20.70;59.00;;;;;;4120725;28;20262;-64
2021/05/21 08:41:29;;;;;;;2.83;1.85;;;20.70;59.10;;;;;;4122009;28;20111;-63
2021/05/21 08:43:34;;;;;;;6.88;2.55;;;20.70;59.20;;;;;;4118907;28;20172;-63
2021/05/21 08:45:37;;;;;;;4.70;2.08;;;20.60;59.30;;;;;;4125582;28;20046;-61
2021/05/21 08:47:40;;;;;;;6.45;2.25;;;20.60;59.20;;;;;;4122074;28;20080;-61
2021/05/21 08:49:42;;;;;;;3.85;2.25;;;20.60;59.40;;;;;;4119233;28;20647;-63
2021/05/21 08:51:44;;;;;;;5.22;2.15;;;20.60;59.40;;;;;;4122449;28;20147;-62
2021/05/21 08:53:46;;;;;;;2.80;2.10;;;20.50;59.50;;;;;;4119271;28;20669;-62
2021/05/21 08:55:48;;;;;;;5.95;2.40;;;20.50;59.60;;;;;;4119781;28;20060;-62
2021/05/21 08:57:50;;;;;;;4.82;2.35;;;20.50;59.50;;;;;;4122771;28;20040;-62
2021/05/21 08:59:52;;;;;;;4.60;2.15;;;20.50;59.70;;;;;;4118195;28;20072;-61
2021/05/21 09:01:59;;;;;;;3.97;2.28;;;20.50;59.60;;;;;;4120526;28;21095;-62
2021/05/21 09:04:05;;;;;;;4.40;2.10;;;20.40;59.70;;;;;;4120927;28;20688;-68
2021/05/21 09:06:17;;;;;;;4.97;2.60;;;20.40;59.70;;;;;;4118414;28;20610;-67
2021/05/21 09:08:34;;;;;;;6.50;2.50;;;20.30;59.60;;;;;;4118014;28;20091;-65
2021/05/21 09:10:44;;;;;;;5.10;2.35;;;20.30;59.60;;;;;;4116796;28;20127;-66
2021/05/21 09:12:51;;;;;;;5.25;2.53;;;20.30;59.60;;;;;;4122011;28;20886;-69
2021/05/21 09:15:27;;;;;;;5.15;2.50;;;20.20;59.60;;;;;;4121447;28;20556;-67
2021/05/21 09:17:29;;;;;;;4.60;2.28;;;20.20;59.80;;;;;;4113325;28;20332;-68
2021/05/21 09:19:31;;;;;;;7.45;2.40;;;20.20;59.80;;;;;;4121144;28;20076;-65
2021/05/21 09:22:07;;;;;;;5.68;2.67;;;20.20;59.90;;;;;;4121253;28;20111;-69
2021/05/21 09:24:10;;;;;;;7.70;2.65;;;20.20;60.00;;;;;;4118371;28;20099;-67
2021/05/21 09:26:12;;;;;;;11.07;2.42;;;20.10;60.00;;;;;;4117791;28;20045;-66
2021/05/21 09:28:37;;;;;;;5.65;2.90;;;20.10;60.20;;;;;;4122227;28;20157;-70
2021/05/21 09:30:59;;;;;;;5.32;2.45;;;20.10;60.20;;;;;;4118033;28;20056;-68
2021/05/21 09:33:07;;;;;;;4.60;2.40;;;20.10;60.30;;;;;;4119303;28;20070;-68
2021/05/21 09:35:17;;;;;;;5.15;2.42;;;20.10;60.30;;;;;;4116986;28;20307;-67
2021/05/21 09:37:24;;;;;;;4.32;2.55;;;20.00;60.30;;;;;;4121108;28;20124;-66
2021/05/21 09:39:27;;;;;;;6.40;2.60;;;20.00;60.40;;;;;;4132964;28;20334;-67
2021/05/21 09:41:29;;;;;;;4.50;2.13;;;20.00;60.40;;;;;;4118811;28;20470;-68
2021/05/21 09:43:31;;;;;;;5.30;2.60;;;20.00;60.50;;;;;;4118999;28;21126;-67
2021/05/21 09:45:35;;;;;;;5.25;2.80;;;19.90;60.50;;;;;;4120033;28;20041;-71
2021/05/21 09:47:58;;;;;;;5.40;2.53;;;19.90;60.60;;;;;;4119489;28;20208;-73
2021/05/21 09:50:03;;;;;;;5.47;2.95;;;19.90;60.60;;;;;;4118885;28;20056;-73
2021/05/21 09:52:07;;;;;;;4.80;2.70;;;19.90;60.60;;;;;;4120812;28;20136;-70
2021/05/21 09:54:09;;;;;;;4.65;2.40;;;19.90;60.60;;;;;;4119005;28;20413;-70
2021/05/21 09:56:20;;;;;;;6.18;2.80;;;19.90;60.60;;;;;;4116950;28;20707;-68
2021/05/21 09:58:41;;;;;;;5.43;3.08;;;19.80;60.50;;;;;;4120564;28;20099;-67
2021/05/21 10:01:03;;;;;;;5.85;2.63;;;19.80;60.60;;;;;;4119707;28;20136;-67
2021/05/21 10:03:05;;;;;;;4.03;2.40;;;19.80;60.70;;;;;;4118954;28;20512;-67
2021/05/21 10:05:08;;;;;;;6.43;2.65;;;19.80;60.70;;;;;;4117649;28;20049;-67
2021/05/21 10:07:11;;;;;;;5.57;2.40;;;19.80;60.80;;;;;;4121207;28;20033;-59
2021/05/21 10:09:13;;;;;;;5.53;2.50;;;19.70;60.30;;;;;;4117975;28;20898;-61
2021/05/21 10:11:18;;;;;;;6.65;2.80;;;19.70;60.10;;;;;;4118673;28;20336;-61
2021/05/21 10:13:21;;;;;;;6.80;2.88;;;19.70;60.10;;;;;;4120214;28;20036;-61
2021/05/21 10:15:23;;;;;;;6.50;2.57;;;19.60;60.00;;;;;;4121679;28;20133;-61
2021/05/21 10:17:26;;;;;;;4.20;2.30;;;19.60;60.00;;;;;;4119966;28;20405;-61
2021/05/21 10:19:29;;;;;;;3.78;2.22;;;19.60;59.70;;;;;;4120745;28;20042;-61
2021/05/21 10:21:31;;;;;;;6.00;2.45;;;19.50;59.70;;;;;;4114888;28;20819;-64
2021/05/21 10:23:51;;;;;;;4.82;2.67;;;19.50;60.50;;;;;;4117765;28;20053;-67
2021/05/21 10:25:56;;;;;;;4.93;2.30;;;19.50;60.00;;;;;;4119149;28;20059;-60
2021/05/21 10:28:04;;;;;;;7.55;2.75;;;19.40;60.10;;;;;;4120517;28;20033;-67
2021/05/21 10:30:08;;;;;;;5.65;2.60;;;19.40;60.70;;;;;;4117819;28;20060;-62
2021/05/21 10:32:14;;;;;;;5.68;2.65;;;19.40;60.90;;;;;;4118827;28;20425;-63
2021/05/21 10:34:21;;;;;;;5.22;2.58;;;19.40;61.00;;;;;;4118844;28;20037;-63
2021/05/21 10:36:23;;;;;;;5.57;2.50;;;19.50;60.80;;;;;;4116821;28;20688;-67
2021/05/21 10:38:26;;;;;;;5.55;2.60;;;19.40;60.90;;;;;;4116822;28;20532;-67
2021/05/21 10:40:29;;;;;;;6.80;2.33;;;19.40;61.00;;;;;;4119980;28;20124;-67
2021/05/21 10:42:38;;;;;;;5.18;2.33;;;19.40;61.20;;;;;;4117368;28;20058;-67
2021/05/21 10:44:40;;;;;;;7.45;2.30;;;19.30;61.10;;;;;;4119470;28;20037;-67
2021/05/21 10:46:43;;;;;;;7.45;2.67;;;19.30;61.20;;;;;;4096916;28;20201;-66
2021/05/21 10:48:56;;;;;;;4.57;1.80;;;19.30;61.20;;;;;;4120229;28;20604;-67
2021/05/21 10:51:09;;;;;;;;;;;19.30;61.60;;;;;;4126784;28;20772;-65
2021/05/21 10:53:11;;;;;;;5.45;2.00;;;19.30;61.70;;;;;;4119050;28;19928;-66
2021/05/21 10:55:13;;;;;;;6.47;2.45;;;19.30;61.60;;;;;;4122779;28;20084;-72